createdAt,value
2023-02-15T00:00:38.967Z,18.02
2023-02-15T00:03:05.462Z,18.05
2023-02-15T00:05:32.324Z,18.92
2023-02-15T00:07:58.739Z,21.45
2023-02-15T00:10:25.139Z,18.95
2023-02-15T00:12:51.525Z,18.98
2023-02-15T00:15:18.019Z,17.92
2023-02-15T00:17:44.450Z,17.35
2023-02-15T00:20:11.854Z,18.10
2023-02-15T00:22:38.271Z,19.23
2023-02-15T00:25:04.942Z,17.45
2023-02-15T00:27:31.355Z,18.73
2023-02-15T00:29:57.857Z,18.88
2023-02-15T00:32:24.270Z,20.35
2023-02-15T00:34:50.660Z,20.88
2023-02-15T00:37:17.129Z,20.10
2023-02-15T00:39:47.231Z,22.37
2023-02-15T00:42:13.626Z,22.75
2023-02-15T00:44:40.049Z,24.05
2023-02-15T00:47:06.543Z,22.33
2023-02-15T00:49:33.383Z,22.30
2023-02-15T00:51:59.808Z,23.17
2023-02-15T00:54:26.219Z,25.02
2023-02-15T00:56:52.627Z,30.00
2023-02-15T00:59:19.044Z,27.17
2023-02-15T01:01:47.548Z,27.73
2023-02-15T01:04:13.992Z,24.42
2023-02-15T01:06:40.432Z,23.50
2023-02-15T01:09:06.895Z,23.92
2023-02-15T01:11:33.321Z,23.33
2023-02-15T01:13:59.795Z,24.30
2023-02-15T01:16:28.573Z,21.73
2023-02-15T01:18:57.986Z,19.98
2023-02-15T01:21:26.119Z,19.77
2023-02-15T01:23:52.905Z,21.50
2023-02-15T01:26:19.300Z,21.00
2023-02-15T01:28:46.511Z,23.60
2023-02-15T01:31:15.772Z,21.40
2023-02-15T01:33:44.533Z,23.70
2023-02-15T01:36:11.294Z,23.58
2023-02-15T01:38:40.719Z,23.48
2023-02-15T01:41:25.480Z,24.42
2023-02-15T01:43:56.188Z,25.33
2023-02-15T01:46:32.296Z,26.98
2023-02-15T01:49:10.740Z,32.50
2023-02-15T01:51:38.825Z,31.58
2023-02-15T01:54:12.905Z,33.83
2023-02-15T01:56:41.863Z,33.50
2023-02-15T01:59:15.804Z,33.80
2023-02-15T02:01:42.327Z,32.47
2023-02-15T02:04:18.882Z,30.73
2023-02-15T02:06:49.563Z,32.30
2023-02-15T02:09:16.014Z,31.90
2023-02-15T02:11:45.817Z,29.38
2023-02-15T02:14:12.851Z,30.08
2023-02-15T02:16:53.226Z,29.35
2023-02-15T02:19:46.618Z,28.77
2023-02-15T02:22:50.434Z,28.83
2023-02-15T02:25:33.753Z,29.63
2023-02-15T02:28:36.657Z,29.23
2023-02-15T02:31:49.181Z,26.88
2023-02-15T02:34:32.649Z,27.48
2023-02-15T02:37:24.237Z,26.30
2023-02-15T02:40:04.721Z,23.73
2023-02-15T02:42:39.839Z,24.58
2023-02-15T02:45:07.829Z,23.77
2023-02-15T02:47:39.948Z,24.83
2023-02-15T02:50:10.778Z,23.83
2023-02-15T02:52:52.382Z,24.05
2023-02-15T02:55:30.961Z,20.15
2023-02-15T02:58:16.782Z,22.13
2023-02-15T03:00:49.368Z,22.63
2023-02-15T03:03:38.676Z,20.85
2023-02-15T03:06:11.109Z,20.83
2023-02-15T03:08:43.422Z,21.60
2023-02-15T03:11:10.034Z,21.73
2023-02-15T03:13:36.698Z,22.42
2023-02-15T03:16:26.357Z,20.92
2023-02-15T03:18:59.598Z,16.48
2023-02-15T03:21:58.593Z,18.20
2023-02-15T03:24:31.242Z,15.75
2023-02-15T03:26:58.105Z,15.80
2023-02-15T03:29:28.317Z,15.93
2023-02-15T03:31:58.877Z,15.50
2023-02-15T03:34:26.169Z,18.90
2023-02-15T03:37:17.372Z,21.70
2023-02-15T03:39:53.473Z,26.67
2023-02-15T03:42:32.459Z,34.75
2023-02-15T03:45:03.506Z,35.47
2023-02-15T03:50:27.796Z,30.65
2023-02-15T03:52:56.521Z,32.45
2023-02-15T03:55:23.121Z,30.30
2023-02-15T03:58:08.332Z,31.13
2023-02-15T04:00:57.089Z,31.83
2023-02-15T04:03:46.764Z,31.70
2023-02-15T04:06:13.139Z,30.00
2023-02-15T04:08:58.277Z,30.42
2023-02-15T04:11:24.707Z,30.80
2023-02-15T04:13:57.241Z,32.97
2023-02-15T04:16:24.760Z,34.42
2023-02-15T04:19:09.784Z,32.67
2023-02-15T04:21:54.825Z,32.13
2023-02-15T04:24:39.989Z,34.25
2023-02-15T04:27:06.790Z,29.85
2023-02-15T04:29:33.462Z,30.73
2023-02-15T04:32:02.131Z,28.15
2023-02-15T04:34:28.586Z,30.95
2023-02-15T04:36:54.986Z,29.25
2023-02-15T04:39:21.373Z,33.70
2023-02-15T04:41:48.677Z,34.88
2023-02-15T04:44:15.184Z,36.85
2023-02-15T04:46:41.597Z,35.35
2023-02-15T04:49:09.470Z,37.45
2023-02-15T04:51:35.887Z,34.92
2023-02-15T04:54:02.292Z,37.97
2023-02-15T04:56:30.875Z,41.03
2023-02-15T04:58:57.333Z,44.92
2023-02-15T05:01:23.772Z,43.55
2023-02-15T05:03:50.284Z,43.97
2023-02-15T05:06:16.719Z,43.90
2023-02-15T05:08:43.130Z,45.03
2023-02-15T05:11:09.614Z,43.70
2023-02-15T05:13:36.017Z,47.13
2023-02-15T05:16:02.819Z,47.95
2023-02-15T05:18:29.438Z,47.33
2023-02-15T05:20:55.873Z,47.17
2023-02-15T05:23:22.280Z,46.85
2023-02-15T05:26:08.175Z,46.10
2023-02-15T05:28:35.726Z,45.88
2023-02-15T05:31:12.718Z,48.60
2023-02-15T05:33:40.302Z,47.65
2023-02-15T05:36:07.614Z,50.60
2023-02-15T05:38:34.421Z,47.35
2023-02-15T05:41:00.939Z,48.97
2023-02-15T05:43:27.652Z,50.90
2023-02-15T05:45:55.728Z,49.67
2023-02-15T05:48:24.958Z,50.92
2023-02-15T05:51:13.849Z,48.90
2023-02-15T05:53:40.710Z,46.50
2023-02-15T05:56:09.013Z,45.03
2023-02-15T05:58:38.839Z,48.33
2023-02-15T06:01:23.901Z,48.17
2023-02-15T06:03:50.405Z,47.05
2023-02-15T06:06:17.014Z,44.03
2023-02-15T06:08:43.460Z,48.05
2023-02-15T06:11:10.244Z,45.50
2023-02-15T06:13:38.697Z,45.53
2023-02-15T06:16:06.615Z,45.28
2023-02-15T06:18:33.143Z,43.67
2023-02-15T06:20:59.571Z,46.03
2023-02-15T06:23:26.006Z,45.25
2023-02-15T06:25:52.547Z,45.45
2023-02-15T06:28:18.984Z,49.88
2023-02-15T06:30:45.415Z,45.05
2023-02-15T06:33:11.824Z,42.60
2023-02-15T06:35:38.241Z,43.30
2023-02-15T06:38:05.696Z,42.28
2023-02-15T06:40:32.090Z,42.80
2023-02-15T06:42:58.486Z,45.22
2023-02-15T06:45:24.923Z,42.95
2023-02-15T06:47:51.321Z,44.95
2023-02-15T06:50:17.771Z,41.40
2023-02-15T06:52:44.238Z,44.72
2023-02-15T06:55:10.627Z,45.70
2023-02-15T06:57:37.429Z,46.38
2023-02-15T07:00:05.854Z,47.00
2023-02-15T07:02:32.565Z,45.85
2023-02-15T07:04:59.046Z,43.05
2023-02-15T07:07:25.511Z,45.15
2023-02-15T07:09:52.191Z,44.55
2023-02-15T07:12:37.424Z,46.55
2023-02-15T07:15:06.899Z,43.15
2023-02-15T07:17:35.897Z,43.67
2023-02-15T07:20:05.829Z,43.05
2023-02-15T07:22:32.299Z,43.40
2023-02-15T07:24:58.751Z,44.05
2023-02-15T07:27:25.144Z,43.58
2023-02-15T07:29:51.582Z,42.53
2023-02-15T07:32:18.195Z,42.13
2023-02-15T07:34:44.625Z,44.28
2023-02-15T07:37:11.072Z,40.70
2023-02-15T07:39:37.481Z,42.83
2023-02-15T07:42:03.889Z,41.38
2023-02-15T07:44:31.114Z,40.97
2023-02-15T07:46:57.515Z,39.08
2023-02-15T07:49:24.159Z,39.28
2023-02-15T07:51:50.684Z,39.97
2023-02-15T07:54:17.089Z,41.10
2023-02-15T07:56:43.497Z,40.70
2023-02-15T07:59:10.185Z,39.10
2023-02-15T08:01:38.103Z,38.00
2023-02-15T08:04:06.994Z,40.17
2023-02-15T08:06:36.788Z,40.90
2023-02-15T08:09:08.604Z,40.35
2023-02-15T08:11:43.668Z,39.85
2023-02-15T08:14:15.504Z,42.22
2023-02-15T08:16:44.895Z,38.97
2023-02-15T08:19:12.564Z,40.28
2023-02-15T08:21:41.618Z,41.28
2023-02-15T08:24:09.501Z,38.70
2023-02-15T08:26:36.690Z,38.80
2023-02-15T08:29:04.106Z,38.05
2023-02-15T08:31:30.750Z,39.55
2023-02-15T08:33:58.242Z,40.83
2023-02-15T08:36:29.786Z,39.63
2023-02-15T08:38:59.263Z,38.38
2023-02-15T08:41:28.031Z,40.92
2023-02-15T08:43:56.265Z,38.60
2023-02-15T08:46:24.492Z,41.40
2023-02-15T08:48:51.411Z,40.70
2023-02-15T08:51:26.218Z,39.85
2023-02-15T08:53:55.148Z,41.20
2023-02-15T08:56:27.085Z,40.30
2023-02-15T08:58:54.298Z,41.75
2023-02-15T09:01:23.399Z,40.33
2023-02-15T09:03:54.306Z,40.45
2023-02-15T09:06:21.873Z,39.33
2023-02-15T09:08:48.385Z,39.55
2023-02-15T09:11:23.185Z,40.22
2023-02-15T09:13:53.071Z,42.92
2023-02-15T09:16:19.501Z,38.53
2023-02-15T09:18:46.277Z,40.20
2023-02-15T09:21:18.192Z,43.03
2023-02-15T09:23:45.879Z,41.22
2023-02-15T09:26:15.353Z,38.85
2023-02-15T09:28:42.216Z,39.95
2023-02-15T09:31:18.291Z,41.13
2023-02-15T09:33:46.895Z,42.17
2023-02-15T09:36:27.925Z,41.50
2023-02-15T09:39:00.000Z,40.95
2023-02-15T09:41:38.312Z,38.78
2023-02-15T09:44:23.174Z,39.28
2023-02-15T09:47:28.637Z,42.10
2023-02-15T09:50:19.989Z,41.17
2023-02-15T09:55:49.407Z,40.90
2023-02-15T09:58:38.000Z,41.70
2023-02-15T10:01:21.759Z,41.53
2023-02-15T10:04:19.336Z,42.40
2023-02-15T10:07:14.991Z,40.88
2023-02-15T10:10:08.570Z,40.70
2023-02-15T10:13:13.766Z,41.28
2023-02-15T10:15:54.252Z,39.38
2023-02-15T10:18:51.449Z,45.38
2023-02-15T10:21:41.332Z,41.78
2023-02-15T10:24:23.837Z,42.72
2023-02-15T10:26:50.313Z,43.63
2023-02-15T10:29:32.702Z,42.22
2023-02-15T10:32:24.424Z,42.92
2023-02-15T10:35:24.434Z,42.38
2023-02-15T10:38:06.671Z,45.20
2023-02-15T10:40:47.460Z,42.17
2023-02-15T10:43:19.840Z,44.20
2023-02-15T10:45:57.817Z,42.78
2023-02-15T10:48:58.577Z,40.88
2023-02-15T10:51:43.837Z,42.38
2023-02-15T10:54:49.218Z,45.45
2023-02-15T10:57:40.526Z,43.95
2023-02-15T11:03:01.903Z,41.85
2023-02-15T11:06:02.222Z,43.00
2023-02-15T11:08:32.445Z,40.88
2023-02-15T11:11:12.627Z,43.90
2023-02-15T11:13:48.173Z,31.88
2023-02-15T11:16:23.854Z,42.15
2023-02-15T11:19:11.898Z,43.20
2023-02-15T11:21:43.878Z,41.50
2023-02-15T11:24:19.184Z,41.10
2023-02-15T11:26:52.690Z,42.45
2023-02-15T11:29:41.644Z,37.75
2023-02-15T11:32:26.917Z,38.78
2023-02-15T11:35:15.981Z,40.03
2023-02-15T11:37:59.621Z,38.05
2023-02-15T11:40:36.329Z,40.53
2023-02-15T11:43:14.509Z,38.53
2023-02-15T11:45:43.547Z,38.00
2023-02-15T11:48:12.765Z,38.15
2023-02-15T11:50:39.796Z,39.70
2023-02-15T11:53:12.585Z,38.55
2023-02-15T11:55:39.652Z,35.67
2023-02-15T11:58:22.124Z,37.00
2023-02-15T12:00:53.330Z,36.35
2023-02-15T12:03:25.404Z,36.42
2023-02-15T12:05:57.276Z,36.38
2023-02-15T12:08:23.701Z,34.80
2023-02-15T12:11:01.623Z,35.70
2023-02-15T12:13:28.342Z,35.30
2023-02-15T12:15:58.375Z,34.15
2023-02-15T12:18:45.168Z,25.17
2023-02-15T12:21:29.111Z,33.90
2023-02-15T12:24:00.922Z,33.15
2023-02-15T12:26:33.108Z,31.38
2023-02-15T12:29:03.112Z,32.42
2023-02-15T12:31:37.116Z,30.10
2023-02-15T12:34:26.245Z,29.70
2023-02-15T12:36:58.892Z,30.33
2023-02-15T12:39:28.480Z,26.98
2023-02-15T12:41:54.865Z,30.45
2023-02-15T12:44:25.229Z,29.58
2023-02-15T12:47:04.946Z,28.33
2023-02-15T12:49:36.951Z,28.08
2023-02-15T12:52:21.042Z,27.25
2023-02-15T12:54:48.325Z,27.27
2023-02-15T12:57:27.594Z,25.80
2023-02-15T13:00:06.965Z,27.08
2023-02-15T13:02:43.788Z,26.55
2023-02-15T13:05:38.201Z,26.50
2023-02-15T13:08:17.579Z,26.02
2023-02-15T13:10:56.903Z,24.95
2023-02-15T13:13:27.207Z,25.67
2023-02-15T13:15:59.258Z,24.98
2023-02-15T13:18:37.800Z,24.92
2023-02-15T13:21:12.070Z,24.88
2023-02-15T13:23:43.159Z,24.67
2023-02-15T13:28:48.324Z,22.00
2023-02-15T13:31:18.357Z,23.67
2023-02-15T13:33:50.385Z,23.17
2023-02-15T13:36:25.720Z,21.83
2023-02-15T13:38:58.345Z,21.35
2023-02-15T13:41:36.640Z,20.52
2023-02-15T13:44:38.622Z,22.40
2023-02-15T13:47:18.148Z,21.05
2023-02-15T13:50:07.783Z,21.33
2023-02-15T13:52:57.429Z,19.90
2023-02-15T13:55:35.537Z,20.88
2023-02-15T13:58:39.376Z,20.27
2023-02-15T14:01:19.374Z,21.02
2023-02-15T14:04:11.401Z,19.98
2023-02-15T14:07:07.321Z,21.20
2023-02-15T14:09:48.797Z,19.95
2023-02-15T14:12:46.755Z,20.73
2023-02-15T14:15:13.107Z,19.83
2023-02-15T14:17:55.284Z,20.35
2023-02-15T14:20:40.336Z,18.17
2023-02-15T14:23:29.000Z,19.83
2023-02-15T14:26:02.851Z,19.13
2023-02-15T14:28:38.299Z,19.33
2023-02-15T14:31:08.138Z,18.90
2023-02-15T14:33:53.517Z,19.77
2023-02-15T14:36:20.936Z,20.10
2023-02-15T14:39:30.333Z,20.45
2023-02-15T14:42:02.909Z,19.20
2023-02-15T14:45:02.380Z,19.92
2023-02-15T14:47:37.684Z,19.13
2023-02-15T14:50:39.500Z,18.45
2023-02-15T14:53:27.575Z,19.85
2023-02-15T14:56:12.385Z,19.65
2023-02-15T14:58:39.139Z,17.63
2023-02-15T15:01:10.662Z,18.42
2023-02-15T15:03:44.116Z,17.23
2023-02-15T15:06:26.257Z,17.88
2023-02-15T15:08:56.642Z,17.85
2023-02-15T15:11:42.638Z,17.27
2023-02-15T15:14:11.302Z,18.90
2023-02-15T15:16:38.082Z,17.67
2023-02-15T15:19:07.245Z,18.33
2023-02-15T15:21:53.283Z,17.95
2023-02-15T15:24:38.007Z,17.08
2023-02-15T15:27:46.583Z,18.60
2023-02-15T15:30:15.763Z,19.35
2023-02-15T15:33:00.584Z,17.30
2023-02-15T15:35:44.907Z,17.33
2023-02-15T15:38:55.206Z,19.17
2023-02-15T15:41:49.597Z,17.92
2023-02-15T15:44:52.884Z,17.40
2023-02-15T15:47:41.294Z,17.52
2023-02-15T15:50:17.897Z,15.52
2023-02-15T15:52:52.412Z,16.55
2023-02-15T15:55:23.002Z,16.17
2023-02-15T15:57:55.985Z,16.92
2023-02-15T16:00:37.827Z,16.25
2023-02-15T16:03:05.289Z,16.92
2023-02-15T16:05:39.593Z,14.68
2023-02-15T16:08:06.497Z,15.50
2023-02-15T16:10:36.828Z,17.27
2023-02-15T16:13:03.367Z,16.67
2023-02-15T16:15:50.470Z,16.48
2023-02-15T16:18:18.921Z,17.67
2023-02-15T16:20:57.882Z,17.45
2023-02-15T16:23:36.243Z,18.20
2023-02-15T16:26:39.673Z,17.77
2023-02-15T16:29:26.713Z,16.50
2023-02-15T16:32:19.382Z,18.92
2023-02-15T16:34:56.825Z,19.40
2023-02-15T16:37:28.163Z,17.90
2023-02-15T16:39:56.062Z,18.52
2023-02-15T16:42:23.136Z,17.40
2023-02-15T16:44:55.002Z,17.00
2023-02-15T16:47:32.444Z,18.35
2023-02-15T16:50:02.929Z,17.63
2023-02-15T16:52:30.576Z,19.85
2023-02-15T16:55:00.827Z,18.15
2023-02-15T16:57:30.978Z,16.50
2023-02-15T17:00:04.169Z,16.73
2023-02-15T17:02:54.374Z,17.00
2023-02-15T17:05:20.889Z,17.75
2023-02-15T17:08:04.405Z,17.15
2023-02-15T17:10:32.845Z,16.67
2023-02-15T17:13:04.723Z,16.27
2023-02-15T17:15:38.478Z,17.90
2023-02-15T17:18:15.878Z,17.75
2023-02-15T17:20:44.485Z,17.25
2023-02-15T17:23:23.222Z,16.65
2023-02-15T17:25:49.978Z,17.17
2023-02-15T17:28:19.569Z,15.98
2023-02-15T17:30:47.319Z,15.90
2023-02-15T17:33:23.755Z,15.15
2023-02-15T17:36:05.445Z,15.68
2023-02-15T17:38:32.299Z,15.93
2023-02-15T17:40:59.197Z,14.55
2023-02-15T17:43:26.567Z,15.18
2023-02-15T17:45:53.555Z,16.15
2023-02-15T17:48:35.205Z,15.02
2023-02-15T17:51:03.062Z,15.48
2023-02-15T17:53:29.824Z,16.00
2023-02-15T17:55:56.241Z,16.70
2023-02-15T17:58:22.981Z,16.63
2023-02-15T18:01:11.036Z,18.88
2023-02-15T18:04:02.781Z,17.02
2023-02-15T18:06:48.374Z,17.23
2023-02-15T18:09:36.519Z,16.10
2023-02-15T18:12:15.444Z,17.20
2023-02-15T18:14:41.905Z,18.42
2023-02-15T18:17:12.239Z,17.25
2023-02-15T18:19:38.902Z,17.42
2023-02-15T18:22:11.387Z,17.30
2023-02-15T18:24:37.824Z,18.45
2023-02-15T18:27:05.274Z,17.45
2023-02-15T18:29:32.235Z,19.40
2023-02-15T18:32:00.157Z,17.38
2023-02-15T18:34:38.238Z,19.92
2023-02-15T18:37:07.244Z,20.35
2023-02-15T18:39:40.062Z,19.83
2023-02-15T18:42:20.536Z,18.80
2023-02-15T18:44:47.603Z,16.63
2023-02-15T18:47:14.010Z,21.55
2023-02-15T18:49:40.394Z,21.63
2023-02-15T18:52:14.429Z,22.02
2023-02-15T18:54:42.010Z,23.17
2023-02-15T18:57:15.830Z,23.20
2023-02-15T18:59:42.338Z,24.15
2023-02-15T19:02:17.258Z,24.70
2023-02-15T19:04:45.320Z,26.15
2023-02-15T19:07:17.780Z,25.42
2023-02-15T19:09:47.756Z,23.52
2023-02-15T19:12:14.198Z,24.98
2023-02-15T19:14:40.716Z,24.20
2023-02-15T19:17:15.260Z,25.38
2023-02-15T19:19:41.753Z,24.35
2023-02-15T19:22:30.367Z,26.02
2023-02-15T19:24:59.263Z,27.63
2023-02-15T19:27:28.615Z,26.10
2023-02-15T19:29:55.095Z,25.30
2023-02-15T19:32:21.605Z,24.73
2023-02-15T19:34:48.055Z,24.00
2023-02-15T19:37:36.974Z,25.27
2023-02-15T19:40:04.961Z,23.85
2023-02-15T19:42:32.475Z,24.08
2023-02-15T19:44:58.859Z,23.25
2023-02-15T19:47:27.840Z,20.63
2023-02-15T19:50:00.223Z,22.58
2023-02-15T19:52:26.639Z,23.27
2023-02-15T19:54:54.704Z,23.98
2023-02-15T19:57:21.569Z,25.73
2023-02-15T19:59:47.965Z,24.88
2023-02-15T20:02:15.733Z,23.45
2023-02-15T20:04:42.258Z,22.95
2023-02-15T20:07:28.292Z,21.42
2023-02-15T20:09:54.742Z,22.38
2023-02-15T20:12:24.365Z,22.27
2023-02-15T20:14:51.841Z,21.70
2023-02-15T20:17:18.733Z,23.17
2023-02-15T20:19:46.116Z,24.35
2023-02-15T20:22:24.980Z,23.70
2023-02-15T20:24:52.718Z,22.55
2023-02-15T20:27:19.935Z,23.13
2023-02-15T20:29:46.380Z,24.25
2023-02-15T20:32:13.020Z,25.15
2023-02-15T20:34:39.543Z,26.17
2023-02-15T20:37:06.314Z,28.02
2023-02-15T20:39:34.788Z,26.58
2023-02-15T20:42:01.197Z,27.25
2023-02-15T20:44:30.777Z,23.92
2023-02-15T20:46:59.133Z,26.08
2023-02-15T20:49:27.403Z,25.20
2023-02-15T20:51:56.139Z,24.88
2023-02-15T20:54:28.890Z,27.90
2023-02-15T20:56:55.380Z,26.67
2023-02-15T20:59:23.446Z,26.20
2023-02-15T21:01:51.546Z,25.80
2023-02-15T21:04:32.025Z,25.65
2023-02-15T21:06:59.792Z,19.10
2023-02-15T21:09:26.420Z,23.92
2023-02-15T21:11:55.485Z,22.73
2023-02-15T21:14:25.838Z,18.15
2023-02-15T21:16:53.084Z,18.85
2023-02-15T21:19:21.513Z,21.60
2023-02-15T21:21:50.045Z,23.00
2023-02-15T21:24:34.780Z,24.10
2023-02-15T21:27:03.545Z,24.40
2023-02-15T21:29:30.900Z,23.63
2023-02-15T21:32:01.156Z,23.38
2023-02-15T21:34:27.725Z,18.73
2023-02-15T21:36:54.563Z,22.13
2023-02-15T21:39:23.887Z,23.65
2023-02-15T21:42:11.204Z,24.33
2023-02-15T21:44:56.373Z,24.70
2023-02-15T21:47:47.125Z,25.10
2023-02-15T21:50:41.925Z,25.40
2023-02-15T21:53:12.298Z,24.98
2023-02-15T21:55:38.850Z,18.02
2023-02-15T21:58:06.267Z,23.75
2023-02-15T22:00:33.795Z,26.85
2023-02-15T22:03:01.074Z,27.98
2023-02-15T22:05:30.993Z,25.77
2023-02-15T22:07:57.753Z,25.05
2023-02-15T22:10:32.468Z,22.73
2023-02-15T22:13:03.293Z,23.33
2023-02-15T22:15:35.925Z,23.85
2023-02-15T22:18:02.648Z,25.52
2023-02-15T22:20:29.149Z,25.63
2023-02-15T22:22:55.555Z,26.08
2023-02-15T22:25:24.574Z,24.83
2023-02-15T22:27:52.863Z,26.52
2023-02-15T22:30:25.430Z,25.98
2023-02-15T22:32:52.934Z,26.95
2023-02-15T22:35:28.972Z,25.85
2023-02-15T22:37:55.389Z,26.77
2023-02-15T22:40:25.613Z,26.67
2023-02-15T22:42:53.521Z,25.80
2023-02-15T22:45:23.924Z,32.50
2023-02-15T22:47:53.441Z,30.08
2023-02-15T22:50:26.144Z,31.60
2023-02-15T22:52:53.033Z,37.95
2023-02-15T22:55:22.162Z,35.83
2023-02-15T22:57:51.562Z,36.55
2023-02-15T23:00:24.217Z,38.03
2023-02-15T23:02:50.814Z,34.30
2023-02-15T23:05:26.407Z,35.25
2023-02-15T23:07:53.168Z,34.85
2023-02-15T23:10:21.477Z,35.13
2023-02-15T23:13:09.719Z,35.65
2023-02-15T23:15:37.061Z,34.70
2023-02-15T23:18:17.098Z,32.72
2023-02-15T23:20:54.812Z,36.35
2023-02-15T23:23:29.484Z,37.28
2023-02-15T23:25:56.561Z,40.28
2023-02-15T23:28:41.008Z,39.40
2023-02-15T23:31:18.317Z,37.25
2023-02-15T23:33:45.021Z,39.63
2023-02-15T23:36:34.314Z,40.83
2023-02-15T23:39:30.924Z,39.97
2023-02-15T23:41:59.167Z,34.42
2023-02-15T23:44:25.718Z,37.95
2023-02-15T23:46:52.330Z,40.13
2023-02-15T23:49:19.939Z,39.85
2023-02-15T23:51:49.240Z,39.58
2023-02-15T23:54:17.377Z,43.75
2023-02-15T23:56:46.270Z,43.30
2023-02-15T23:59:17.787Z,41.78
